Ewell, United Kingdom
Current Conditions -  °F | °C
As of 11:50 AM on Thursday 23 Oct 2014 (Local Time) from EGKB Reporting Station
Scattered Clouds Scattered Clouds  
Wind Chill: 57°   Ceiling: Unl
Heat Index: 57°   Visibility: 6mi
Dew Point: 50°   Wind: 14mph
Humidity: 77%   Direction: 230°SW
Pressure: 30.15"   Gusts: NA
Location:  51.35°N, 0.25°W
Report Text: EGKB 231050Z 23012KT 9999 FEW015 SCT030 14/10 Q1021
Loading
Personal Weather Stations






























Interactive Weather Map
Tropical Storm Tracking
New forecast layout! Learn more

10-Day Weather Forecast

Advertisements
Track Severe Weather on mobile